This is the latest recevied weather packets stored in our database for station/object K7TSD. If no packets are shown the sender has not sent any weather packets the latest 1 day(s).
| Time | Temp. | Humidity | Pressure | Rain* | Wind** | Luminosity | Snow |
|---|---|---|---|---|---|---|---|
| 1836274778 | 13.89° C | 67% | 1016.9 hPa | 0 mm | 0 m/s | 0 W/m² | - |
| 1836274476 | 13.89° C | 67% | 1017.3 hPa | 0 mm | 0 m/s | 0 W/m² | - |
| 1836274330 | 13.33° C | 68% | 1016.9 hPa | 0 mm | 0 m/s | 0 W/m² | - |
| 1836274174 | 14.44° C | 66% | 1016.9 hPa | 0 mm | 0 m/s | 0 W/m² | - |
| 1836273869 | 13.89° C | 66% | 1016.9 hPa | 0 mm | 0 m/s | 0 W/m² | - |
| 1778037108 | 1.11° C | 59% | 1015.3 hPa | 0 mm | 0 m/s | 0 W/m² | - |
| 1778036807 | 1.11° C | 60% | 1015.4 hPa | 0 mm | 1.34 m/s, 358° | 0 W/m² | - |
| 1778036503 | 1.11° C | 60% | 1015.2 hPa | 0 mm | 0 m/s | 0 W/m² | - |
| 1778036200 | 1.11° C | 62% | 1015 hPa | 0 mm | 0 m/s | 0 W/m² | - |
| 1778035896 | 1.11° C | 61% | 1014.9 hPa | 0 mm | 0 m/s | 0 W/m² | - |
| 1778035594 | 1.11° C | 59% | 1014.9 hPa | 0 mm | 0 m/s | 0 W/m² | - |
| 1778035290 | 1.11° C | 59% | 1014.9 hPa | 0 mm | 0 m/s | 0 W/m² | - |
| 1778034986 | 1.67° C | 59% | 1014.7 hPa | 0 mm | 0 m/s | 0 W/m² | - |
| 1778034684 | 1.67° C | 58% | 1014.5 hPa | 0 mm | 2.68 m/s, 350° | 0 W/m² | - |
| 1778034381 | 1.67° C | 59% | 1014.6 hPa | 0 mm | 0 m/s | 0 W/m² | - |
| 1778034078 | 1.67° C | 58% | 1014.4 hPa | 0 mm | 1.34 m/s, 312° | 0 W/m² | - |
| 1778033776 | 1.67° C | 59% | 1014.3 hPa | 0 mm | 0.89 m/s, 341° | 0 W/m² | - |
| 1778033473 | 1.67° C | 59% | 1014.3 hPa | 0 mm | 3.13 m/s, 2° | 3 W/m² | - |
| 1778033170 | 1.67° C | 60% | 1014 hPa | 0 mm | 1.79 m/s, 305° | 5 W/m² | - |
| 1778032868 | 1.67° C | 59% | 1014.3 hPa | 0 mm | 2.24 m/s, 337° | 9 W/m² | - |
| 1778032565 | 1.67° C | 60% | 1014 hPa | 0 mm | 0.89 m/s, 333° | 12 W/m² | - |
| 1778032262 | 1.67° C | 60% | 1014 hPa | 0 mm | 1.79 m/s, 336° | 16 W/m² | - |
| 1778031959 | 1.67° C | 59% | 1013.8 hPa | 0 mm | 0.45 m/s, 355° | 19 W/m² | - |
| 1778031654 | 1.67° C | 59% | 1013.8 hPa | 0 mm | 4.92 m/s, 342° | 22 W/m² | - |
| 1778031353 | 2.22° C | 60% | 1013.5 hPa | 0 mm | 0 m/s | 26 W/m² | - |
* Rain latest hour (hover to see other rain measurements)
** Current wind speed in m/s (hover to see current wind gust speed)